sensor_id;sensor_type;location;lat;lon;timestamp;P1;durP1;ratioP1;P2;durP2;ratioP2
52396;SDS011;38322;53.108;6.308;2023-05-07T05:03:12;38.63;;;28.30;;
52396;SDS011;38322;53.108;6.308;2023-05-07T05:05:38;37.42;;;26.77;;
52396;SDS011;38322;53.108;6.308;2023-05-07T05:08:03;36.90;;;27.27;;
52396;SDS011;38322;53.108;6.308;2023-05-07T05:10:29;40.75;;;28.60;;
52396;SDS011;38322;53.108;6.308;2023-05-07T05:12:55;37.85;;;27.33;;
52396;SDS011;38322;53.108;6.308;2023-05-07T05:15:21;39.58;;;27.27;;
52396;SDS011;38322;53.108;6.308;2023-05-07T05:17:46;40.50;;;27.63;;
52396;SDS011;38322;53.108;6.308;2023-05-07T05:20:12;35.95;;;27.83;;
52396;SDS011;38322;53.108;6.308;2023-05-07T05:22:39;38.20;;;29.63;;
52396;SDS011;38322;53.108;6.308;2023-05-07T05:25:05;39.20;;;28.52;;
52396;SDS011;38322;53.108;6.308;2023-05-07T05:27:31;36.97;;;25.98;;
52396;SDS011;38322;53.108;6.308;2023-05-07T05:29:57;34.42;;;24.77;;
52396;SDS011;38322;53.108;6.308;2023-05-07T05:32:23;35.15;;;24.90;;
52396;SDS011;38322;53.108;6.308;2023-05-07T05:34:48;35.70;;;26.77;;
52396;SDS011;38322;53.108;6.308;2023-05-07T05:37:14;33.80;;;26.05;;
52396;SDS011;38322;53.108;6.308;2023-05-07T05:39:40;36.78;;;27.90;;
52396;SDS011;38322;53.108;6.308;2023-05-07T05:42:06;32.22;;;25.92;;
52396;SDS011;38322;53.108;6.308;2023-05-07T05:44:32;34.33;;;26.73;;
52396;SDS011;38322;53.108;6.308;2023-05-07T05:46:57;36.65;;;25.58;;
52396;SDS011;38322;53.108;6.308;2023-05-07T05:49:24;36.67;;;25.73;;
52396;SDS011;38322;53.108;6.308;2023-05-07T05:51:50;36.30;;;26.13;;
52396;SDS011;38322;53.108;6.308;2023-05-07T05:54:16;34.55;;;25.15;;
52396;SDS011;38322;53.108;6.308;2023-05-07T05:56:42;33.13;;;24.48;;
52396;SDS011;38322;53.108;6.308;2023-05-07T05:59:08;30.65;;;25.63;;
52396;SDS011;38322;53.108;6.308;2023-05-07T06:01:33;35.42;;;25.88;;
52396;SDS011;38322;53.108;6.308;2023-05-07T06:03:59;32.00;;;25.25;;
52396;SDS011;38322;53.108;6.308;2023-05-07T06:06:25;30.10;;;23.17;;
52396;SDS011;38322;53.108;6.308;2023-05-07T06:08:51;31.77;;;22.60;;
52396;SDS011;38322;53.108;6.308;2023-05-07T06:11:16;27.90;;;22.35;;
52396;SDS011;38322;53.108;6.308;2023-05-07T06:13:42;28.45;;;22.25;;
52396;SDS011;38322;53.108;6.308;2023-05-07T06:16:08;26.10;;;21.17;;
52396;SDS011;38322;53.108;6.308;2023-05-07T06:18:34;31.17;;;22.75;;
52396;SDS011;38322;53.108;6.308;2023-05-07T06:21:01;30.55;;;24.48;;
52396;SDS011;38322;53.108;6.308;2023-05-07T06:23:27;29.45;;;21.05;;
52396;SDS011;38322;53.108;6.308;2023-05-07T06:25:53;29.60;;;22.65;;
52396;SDS011;38322;53.108;6.308;2023-05-07T06:28:18;26.42;;;21.70;;
52396;SDS011;38322;53.108;6.308;2023-05-07T06:30:44;32.30;;;21.98;;
52396;SDS011;38322;53.108;6.308;2023-05-07T06:33:10;27.58;;;21.05;;
52396;SDS011;38322;53.108;6.308;2023-05-07T06:35:36;29.95;;;21.40;;
52396;SDS011;38322;53.108;6.308;2023-05-07T06:38:02;27.10;;;20.80;;
52396;SDS011;38322;53.108;6.308;2023-05-07T06:40:27;27.17;;;22.65;;
52396;SDS011;38322;53.108;6.308;2023-05-07T06:42:53;28.35;;;22.02;;
52396;SDS011;38322;53.108;6.308;2023-05-07T06:45:19;30.75;;;21.70;;
52396;SDS011;38322;53.108;6.308;2023-05-07T06:47:45;27.85;;;21.65;;
52396;SDS011;38322;53.108;6.308;2023-05-07T06:50:11;29.38;;;21.27;;
52396;SDS011;38322;53.108;6.308;2023-05-07T06:52:37;27.10;;;20.52;;
52396;SDS011;38322;53.108;6.308;2023-05-07T06:55:03;24.67;;;20.90;;
52396;SDS011;38322;53.108;6.308;2023-05-07T06:57:29;23.70;;;18.80;;
52396;SDS011;38322;53.108;6.308;2023-05-07T06:59:55;28.90;;;21.08;;
52396;SDS011;38322;53.108;6.308;2023-05-07T07:02:21;27.08;;;20.13;;
52396;SDS011;38322;53.108;6.308;2023-05-07T07:04:46;26.38;;;21.25;;
52396;SDS011;38322;53.108;6.308;2023-05-07T07:07:12;25.88;;;22.05;;
52396;SDS011;38322;53.108;6.308;2023-05-07T07:09:38;24.08;;;19.52;;
52396;SDS011;38322;53.108;6.308;2023-05-07T07:12:04;23.98;;;19.80;;
52396;SDS011;38322;53.108;6.308;2023-05-07T07:14:30;26.60;;;20.73;;
52396;SDS011;38322;53.108;6.308;2023-05-07T07:16:55;26.73;;;20.35;;
52396;SDS011;38322;53.108;6.308;2023-05-07T07:19:21;26.70;;;21.00;;
52396;SDS011;38322;53.108;6.308;2023-05-07T07:21:47;32.65;;;25.33;;
52396;SDS011;38322;53.108;6.308;2023-05-07T07:24:13;25.05;;;20.67;;
52396;SDS011;38322;53.108;6.308;2023-05-07T07:26:44;27.80;;;21.73;;
52396;SDS011;38322;53.108;6.308;2023-05-07T07:29:10;25.88;;;20.73;;
52396;SDS011;38322;53.108;6.308;2023-05-07T07:31:35;27.30;;;21.15;;
52396;SDS011;38322;53.108;6.308;2023-05-07T07:34:01;27.10;;;20.48;;
52396;SDS011;38322;53.108;6.308;2023-05-07T07:36:27;27.20;;;21.40;;
52396;SDS011;38322;53.108;6.308;2023-05-07T07:38:53;24.05;;;19.50;;
52396;SDS011;38322;53.108;6.308;2023-05-07T07:41:19;25.55;;;20.45;;
52396;SDS011;38322;53.108;6.308;2023-05-07T07:43:45;22.63;;;18.92;;
52396;SDS011;38322;53.108;6.308;2023-05-07T07:46:12;24.38;;;20.23;;
52396;SDS011;38322;53.108;6.308;2023-05-07T07:48:37;25.10;;;21.38;;
52396;SDS011;38322;53.108;6.308;2023-05-07T07:51:03;25.38;;;18.92;;
52396;SDS011;38322;53.108;6.308;2023-05-07T07:53:29;28.67;;;20.33;;
52396;SDS011;38322;53.108;6.308;2023-05-07T07:55:55;23.63;;;21.05;;
52396;SDS011;38322;53.108;6.308;2023-05-07T07:58:21;25.63;;;21.35;;
52396;SDS011;38322;53.108;6.308;2023-05-07T08:00:47;29.27;;;22.55;;
52396;SDS011;38322;53.108;6.308;2023-05-07T08:03:13;28.45;;;22.60;;
52396;SDS011;38322;53.108;6.308;2023-05-07T08:05:41;23.98;;;21.10;;
52396;SDS011;38322;53.108;6.308;2023-05-07T08:08:08;29.73;;;22.50;;
52396;SDS011;38322;53.108;6.308;2023-05-07T08:10:34;26.77;;;21.17;;
52396;SDS011;38322;53.108;6.308;2023-05-07T08:13:03;27.75;;;22.23;;
52396;SDS011;38322;53.108;6.308;2023-05-07T08:15:29;28.70;;;22.42;;
52396;SDS011;38322;53.108;6.308;2023-05-07T08:17:55;26.38;;;21.13;;
52396;SDS011;38322;53.108;6.308;2023-05-07T08:20:22;27.73;;;22.42;;
52396;SDS011;38322;53.108;6.308;2023-05-07T08:22:48;25.85;;;22.23;;
52396;SDS011;38322;53.108;6.308;2023-05-07T08:25:14;26.15;;;20.95;;
52396;SDS011;38322;53.108;6.308;2023-05-07T08:27:40;26.33;;;21.30;;
52396;SDS011;38322;53.108;6.308;2023-05-07T08:30:06;32.28;;;24.17;;
52396;SDS011;38322;53.108;6.308;2023-05-07T08:32:32;30.98;;;24.83;;
52396;SDS011;38322;53.108;6.308;2023-05-07T08:34:58;25.92;;;21.77;;
52396;SDS011;38322;53.108;6.308;2023-05-07T08:37:25;24.20;;;21.08;;
52396;SDS011;38322;53.108;6.308;2023-05-07T08:39:50;29.10;;;21.08;;
52396;SDS011;38322;53.108;6.308;2023-05-07T08:42:16;22.52;;;19.80;;
52396;SDS011;38322;53.108;6.308;2023-05-07T08:44:43;27.85;;;21.92;;
52396;SDS011;38322;53.108;6.308;2023-05-07T08:47:12;25.25;;;21.10;;
52396;SDS011;38322;53.108;6.308;2023-05-07T08:49:38;25.85;;;22.73;;
52396;SDS011;38322;53.108;6.308;2023-05-07T08:52:04;23.63;;;20.48;;
52396;SDS011;38322;53.108;6.308;2023-05-07T08:54:30;23.23;;;20.70;;
52396;SDS011;38322;53.108;6.308;2023-05-07T08:56:56;28.25;;;23.10;;
52396;SDS011;38322;53.108;6.308;2023-05-07T08:59:22;26.20;;;23.20;;
52396;SDS011;38322;53.108;6.308;2023-05-07T09:01:48;27.95;;;22.45;;
52396;SDS011;38322;53.108;6.308;2023-05-07T09:04:14;26.45;;;21.95;;
52396;SDS011;38322;53.108;6.308;2023-05-07T09:06:39;30.33;;;22.73;;
52396;SDS011;38322;53.108;6.308;2023-05-07T09:09:07;28.35;;;22.67;;
52396;SDS011;38322;53.108;6.308;2023-05-07T09:11:33;24.55;;;21.00;;
52396;SDS011;38322;53.108;6.308;2023-05-07T09:13:59;26.88;;;22.08;;
52396;SDS011;38322;53.108;6.308;2023-05-07T09:16:28;25.42;;;21.67;;
52396;SDS011;38322;53.108;6.308;2023-05-07T09:18:57;29.30;;;21.90;;
52396;SDS011;38322;53.108;6.308;2023-05-07T09:21:24;26.80;;;21.02;;
52396;SDS011;38322;53.108;6.308;2023-05-07T09:23:51;23.42;;;20.83;;
52396;SDS011;38322;53.108;6.308;2023-05-07T09:26:17;27.73;;;21.20;;
52396;SDS011;38322;53.108;6.308;2023-05-07T09:28:46;27.60;;;23.85;;
52396;SDS011;38322;53.108;6.308;2023-05-07T09:31:12;30.17;;;24.20;;
52396;SDS011;38322;53.108;6.308;2023-05-07T09:33:38;30.40;;;23.60;;
52396;SDS011;38322;53.108;6.308;2023-05-07T09:36:05;25.35;;;20.90;;
52396;SDS011;38322;53.108;6.308;2023-05-07T09:38:33;25.95;;;21.35;;
52396;SDS011;38322;53.108;6.308;2023-05-07T09:41:01;25.85;;;22.38;;
52396;SDS011;38322;53.108;6.308;2023-05-07T09:43:31;27.60;;;23.33;;
52396;SDS011;38322;53.108;6.308;2023-05-07T09:46:01;29.73;;;21.58;;
52396;SDS011;38322;53.108;6.308;2023-05-07T09:48:29;26.90;;;21.67;;
52396;SDS011;38322;53.108;6.308;2023-05-07T09:50:55;26.30;;;23.38;;
52396;SDS011;38322;53.108;6.308;2023-05-07T09:53:26;25.93;;;22.50;;
52396;SDS011;38322;53.108;6.308;2023-05-07T09:55:54;26.35;;;22.42;;
52396;SDS011;38322;53.108;6.308;2023-05-07T09:58:22;27.17;;;23.77;;
52396;SDS011;38322;53.108;6.308;2023-05-07T10:00:49;26.77;;;22.70;;
52396;SDS011;38322;53.108;6.308;2023-05-07T10:03:16;25.70;;;21.55;;
52396;SDS011;38322;53.108;6.308;2023-05-07T10:05:44;30.88;;;23.40;;
52396;SDS011;38322;53.108;6.308;2023-05-07T10:08:12;27.77;;;21.95;;
52396;SDS011;38322;53.108;6.308;2023-05-07T10:10:41;26.67;;;22.23;;
52396;SDS011;38322;53.108;6.308;2023-05-07T10:13:08;24.13;;;20.20;;
52396;SDS011;38322;53.108;6.308;2023-05-07T10:15:36;25.25;;;22.48;;
52396;SDS011;38322;53.108;6.308;2023-05-07T10:18:03;24.92;;;22.33;;
52396;SDS011;38322;53.108;6.308;2023-05-07T10:20:31;37.25;;;22.60;;
52396;SDS011;38322;53.108;6.308;2023-05-07T10:22:59;27.33;;;22.40;;
52396;SDS011;38322;53.108;6.308;2023-05-07T10:25:31;23.58;;;20.13;;
52396;SDS011;38322;53.108;6.308;2023-05-07T10:27:59;25.85;;;23.20;;
52396;SDS011;38322;53.108;6.308;2023-05-07T10:30:38;22.80;;;20.15;;
52396;SDS011;38322;53.108;6.308;2023-05-07T10:33:19;20.70;;;18.33;;
52396;SDS011;38322;53.108;6.308;2023-05-07T10:35:51;22.85;;;19.33;;
52396;SDS011;38322;53.108;6.308;2023-05-07T10:38:20;24.25;;;21.13;;
52396;SDS011;38322;53.108;6.308;2023-05-07T10:40:46;22.77;;;20.20;;
52396;SDS011;38322;53.108;6.308;2023-05-07T10:43:12;27.13;;;21.27;;
52396;SDS011;38322;53.108;6.308;2023-05-07T10:45:38;21.98;;;19.50;;
52396;SDS011;38322;53.108;6.308;2023-05-07T10:48:05;22.63;;;19.60;;
52396;SDS011;38322;53.108;6.308;2023-05-07T10:50:33;23.25;;;20.83;;
52396;SDS011;38322;53.108;6.308;2023-05-07T10:53:20;18.77;;;16.88;;
52396;SDS011;38322;53.108;6.308;2023-05-07T10:55:48;22.33;;;19.95;;
52396;SDS011;38322;53.108;6.308;2023-05-07T10:58:24;20.88;;;17.83;;
52396;SDS011;38322;53.108;6.308;2023-05-07T11:00:55;19.55;;;17.60;;
52396;SDS011;38322;53.108;6.308;2023-05-07T11:03:24;25.15;;;17.95;;
52396;SDS011;38322;53.108;6.308;2023-05-07T11:06:21;22.95;;;20.58;;
52396;SDS011;38322;53.108;6.308;2023-05-07T11:11:17;23.30;;;20.80;;
52396;SDS011;38322;53.108;6.308;2023-05-07T11:13:45;22.52;;;19.23;;
52396;SDS011;38322;53.108;6.308;2023-05-07T11:16:19;21.58;;;18.75;;
52396;SDS011;38322;53.108;6.308;2023-05-07T11:18:48;19.92;;;17.73;;
52396;SDS011;38322;53.108;6.308;2023-05-07T11:21:31;20.50;;;18.33;;
52396;SDS011;38322;53.108;6.308;2023-05-07T11:23:58;22.33;;;17.98;;
52396;SDS011;38322;53.108;6.308;2023-05-07T11:26:24;19.40;;;17.35;;
52396;SDS011;38322;53.108;6.308;2023-05-07T11:28:50;23.83;;;20.55;;
52396;SDS011;38322;53.108;6.308;2023-05-07T11:31:20;21.00;;;18.88;;
52396;SDS011;38322;53.108;6.308;2023-05-07T11:33:48;22.80;;;19.30;;
52396;SDS011;38322;53.108;6.308;2023-05-07T11:36:15;24.27;;;21.52;;
52396;SDS011;38322;53.108;6.308;2023-05-07T11:38:41;21.75;;;19.45;;
52396;SDS011;38322;53.108;6.308;2023-05-07T11:41:07;22.80;;;18.35;;
52396;SDS011;38322;53.108;6.308;2023-05-07T11:43:33;19.92;;;17.80;;
52396;SDS011;38322;53.108;6.308;2023-05-07T11:46:09;20.88;;;18.60;;
52396;SDS011;38322;53.108;6.308;2023-05-07T11:48:36;21.95;;;18.65;;
52396;SDS011;38322;53.108;6.308;2023-05-07T11:51:03;23.10;;;20.60;;
52396;SDS011;38322;53.108;6.308;2023-05-07T11:53:38;23.92;;;19.70;;
52396;SDS011;38322;53.108;6.308;2023-05-07T11:56:07;20.75;;;18.73;;
52396;SDS011;38322;53.108;6.308;2023-05-07T11:58:35;20.23;;;18.20;;
52396;SDS011;38322;53.108;6.308;2023-05-07T12:01:02;19.30;;;16.85;;
52396;SDS011;38322;53.108;6.308;2023-05-07T12:03:28;20.08;;;18.02;;
52396;SDS011;38322;53.108;6.308;2023-05-07T12:05:54;20.80;;;18.67;;
52396;SDS011;38322;53.108;6.308;2023-05-07T12:08:20;22.25;;;19.98;;
52396;SDS011;38322;53.108;6.308;2023-05-07T12:10:48;18.35;;;16.50;;
52396;SDS011;38322;53.108;6.308;2023-05-07T12:15:41;19.67;;;17.65;;
52396;SDS011;38322;53.108;6.308;2023-05-07T12:18:07;18.30;;;16.33;;
52396;SDS011;38322;53.108;6.308;2023-05-07T12:20:34;20.58;;;18.58;;
52396;SDS011;38322;53.108;6.308;2023-05-07T12:23:01;20.88;;;18.10;;
52396;SDS011;38322;53.108;6.308;2023-05-07T12:25:31;18.50;;;16.58;;
52396;SDS011;38322;53.108;6.308;2023-05-07T12:28:00;23.05;;;17.17;;
52396;SDS011;38322;53.108;6.308;2023-05-07T12:30:26;17.90;;;16.08;;
52396;SDS011;38322;53.108;6.308;2023-05-07T12:32:53;19.65;;;17.65;;
52396;SDS011;38322;53.108;6.308;2023-05-07T12:35:26;22.63;;;17.10;;
52396;SDS011;38322;53.108;6.308;2023-05-07T12:37:55;17.92;;;16.08;;
52396;SDS011;38322;53.108;6.308;2023-05-07T12:40:22;26.45;;;16.63;;
52396;SDS011;38322;53.108;6.308;2023-05-07T12:42:47;16.35;;;14.02;;
52396;SDS011;38322;53.108;6.308;2023-05-07T12:45:20;18.75;;;15.40;;
52396;SDS011;38322;53.108;6.308;2023-05-07T12:47:46;17.92;;;15.95;;
52396;SDS011;38322;53.108;6.308;2023-05-07T12:50:13;19.20;;;16.73;;
52396;SDS011;38322;53.108;6.308;2023-05-07T12:52:39;16.83;;;15.05;;
52396;SDS011;38322;53.108;6.308;2023-05-07T12:55:05;15.98;;;14.40;;
52396;SDS011;38322;53.108;6.308;2023-05-07T12:57:39;20.05;;;16.05;;
52396;SDS011;38322;53.108;6.308;2023-05-07T13:00:06;18.08;;;16.15;;
52396;SDS011;38322;53.108;6.308;2023-05-07T13:02:33;19.05;;;16.55;;
52396;SDS011;38322;53.108;6.308;2023-05-07T13:05:00;18.08;;;16.23;;
52396;SDS011;38322;53.108;6.308;2023-05-07T13:07:26;18.40;;;16.48;;
52396;SDS011;38322;53.108;6.308;2023-05-07T13:09:52;17.92;;;16.20;;
52396;SDS011;38322;53.108;6.308;2023-05-07T13:12:18;16.70;;;15.00;;
52396;SDS011;38322;53.108;6.308;2023-05-07T13:14:43;20.10;;;16.70;;
52396;SDS011;38322;53.108;6.308;2023-05-07T13:17:09;16.38;;;14.68;;
52396;SDS011;38322;53.108;6.308;2023-05-07T13:19:35;15.23;;;13.63;;
52396;SDS011;38322;53.108;6.308;2023-05-07T13:22:02;14.43;;;13.02;;
52396;SDS011;38322;53.108;6.308;2023-05-07T13:24:28;16.67;;;14.50;;
52396;SDS011;38322;53.108;6.308;2023-05-07T13:26:54;16.90;;;15.13;;
52396;SDS011;38322;53.108;6.308;2023-05-07T13:29:20;15.88;;;14.20;;
52396;SDS011;38322;53.108;6.308;2023-05-07T13:31:54;16.75;;;14.40;;
52396;SDS011;38322;53.108;6.308;2023-05-07T13:34:20;17.13;;;15.45;;
52396;SDS011;38322;53.108;6.308;2023-05-07T13:36:46;19.02;;;15.57;;
52396;SDS011;38322;53.108;6.308;2023-05-07T13:39:11;18.55;;;16.65;;
52396;SDS011;38322;53.108;6.308;2023-05-07T13:41:37;17.98;;;16.10;;
52396;SDS011;38322;53.108;6.308;2023-05-07T13:44:03;16.92;;;15.30;;
52396;SDS011;38322;53.108;6.308;2023-05-07T13:46:29;20.15;;;18.15;;
52396;SDS011;38322;53.108;6.308;2023-05-07T13:48:55;18.23;;;16.50;;
52396;SDS011;38322;53.108;6.308;2023-05-07T13:51:21;18.38;;;16.48;;
52396;SDS011;38322;53.108;6.308;2023-05-07T13:53:47;18.35;;;15.30;;
52396;SDS011;38322;53.108;6.308;2023-05-07T13:56:13;23.42;;;17.77;;
52396;SDS011;38322;53.108;6.308;2023-05-07T13:58:40;18.40;;;16.63;;
52396;SDS011;38322;53.108;6.308;2023-05-07T14:01:06;19.92;;;18.02;;
52396;SDS011;38322;53.108;6.308;2023-05-07T14:03:32;19.55;;;16.95;;
52396;SDS011;38322;53.108;6.308;2023-05-07T14:05:59;18.85;;;17.15;;
52396;SDS011;38322;53.108;6.308;2023-05-07T14:08:26;18.10;;;16.20;;
52396;SDS011;38322;53.108;6.308;2023-05-07T14:10:52;16.85;;;15.00;;
52396;SDS011;38322;53.108;6.308;2023-05-07T14:13:19;16.90;;;15.20;;
52396;SDS011;38322;53.108;6.308;2023-05-07T14:15:45;16.08;;;14.55;;
52396;SDS011;38322;53.108;6.308;2023-05-07T14:18:13;18.95;;;17.35;;
52396;SDS011;38322;53.108;6.308;2023-05-07T14:20:39;18.52;;;16.75;;
52396;SDS011;38322;53.108;6.308;2023-05-07T14:23:05;18.45;;;16.73;;
52396;SDS011;38322;53.108;6.308;2023-05-07T14:25:31;17.95;;;16.15;;
52396;SDS011;38322;53.108;6.308;2023-05-07T14:27:57;18.20;;;16.58;;
52396;SDS011;38322;53.108;6.308;2023-05-07T14:30:23;18.05;;;16.17;;
52396;SDS011;38322;53.108;6.308;2023-05-07T14:32:49;18.80;;;17.05;;
52396;SDS011;38322;53.108;6.308;2023-05-07T14:35:16;16.88;;;15.18;;
52396;SDS011;38322;53.108;6.308;2023-05-07T14:37:42;18.10;;;16.30;;
52396;SDS011;38322;53.108;6.308;2023-05-07T14:40:08;20.00;;;18.20;;
52396;SDS011;38322;53.108;6.308;2023-05-07T14:42:34;18.65;;;16.77;;
52396;SDS011;38322;53.108;6.308;2023-05-07T14:45:00;18.70;;;16.85;;
52396;SDS011;38322;53.108;6.308;2023-05-07T14:47:26;17.27;;;15.63;;
52396;SDS011;38322;53.108;6.308;2023-05-07T14:49:52;17.77;;;16.02;;
52396;SDS011;38322;53.108;6.308;2023-05-07T14:52:19;17.55;;;15.88;;
52396;SDS011;38322;53.108;6.308;2023-05-07T14:54:45;17.10;;;15.48;;
52396;SDS011;38322;53.108;6.308;2023-05-07T14:57:11;15.80;;;14.45;;
52396;SDS011;38322;53.108;6.308;2023-05-07T14:59:41;17.35;;;15.75;;
52396;SDS011;38322;53.108;6.308;2023-05-07T15:02:07;17.13;;;15.52;;
52396;SDS011;38322;53.108;6.308;2023-05-07T15:04:34;16.25;;;14.70;;
52396;SDS011;38322;53.108;6.308;2023-05-07T15:07:00;15.50;;;13.95;;
52396;SDS011;38322;53.108;6.308;2023-05-07T15:09:26;17.58;;;15.75;;
52396;SDS011;38322;53.108;6.308;2023-05-07T15:11:51;14.55;;;13.05;;
52396;SDS011;38322;53.108;6.308;2023-05-07T15:14:17;15.45;;;13.88;;
52396;SDS011;38322;53.108;6.308;2023-05-07T15:16:43;15.57;;;14.07;;
52396;SDS011;38322;53.108;6.308;2023-05-07T15:19:10;14.77;;;13.38;;
52396;SDS011;38322;53.108;6.308;2023-05-07T15:21:36;15.98;;;12.45;;
52396;SDS011;38322;53.108;6.308;2023-05-07T15:24:01;12.98;;;10.40;;
52396;SDS011;38322;53.108;6.308;2023-05-07T15:26:27;12.68;;;11.40;;
52396;SDS011;38322;53.108;6.308;2023-05-07T15:28:54;13.48;;;10.65;;
52396;SDS011;38322;53.108;6.308;2023-05-07T15:31:22;14.20;;;10.80;;
52396;SDS011;38322;53.108;6.308;2023-05-07T15:33:48;12.00;;;10.95;;
52396;SDS011;38322;53.108;6.308;2023-05-07T15:36:17;12.60;;;11.40;;
52396;SDS011;38322;53.108;6.308;2023-05-07T15:38:43;12.40;;;11.30;;
52396;SDS011;38322;53.108;6.308;2023-05-07T15:41:08;12.60;;;10.82;;
52396;SDS011;38322;53.108;6.308;2023-05-07T15:43:38;11.68;;;10.57;;
52396;SDS011;38322;53.108;6.308;2023-05-07T15:46:10;11.90;;;10.70;;
52396;SDS011;38322;53.108;6.308;2023-05-07T15:48:36;12.63;;;11.40;;
52396;SDS011;38322;53.108;6.308;2023-05-07T15:51:02;12.32;;;11.23;;
52396;SDS011;38322;53.108;6.308;2023-05-07T15:53:29;11.43;;;10.40;;
52396;SDS011;38322;53.108;6.308;2023-05-07T15:55:55;11.68;;;10.68;;
52396;SDS011;38322;53.108;6.308;2023-05-07T15:58:21;10.32;;;9.38;;
52396;SDS011;38322;53.108;6.308;2023-05-07T16:00:47;11.52;;;10.52;;
52396;SDS011;38322;53.108;6.308;2023-05-07T16:03:12;10.48;;;9.57;;
52396;SDS011;38322;53.108;6.308;2023-05-07T16:05:38;10.40;;;8.95;;
52396;SDS011;38322;53.108;6.308;2023-05-07T16:08:04;10.43;;;9.43;;
52396;SDS011;38322;53.108;6.308;2023-05-07T16:10:30;10.98;;;9.88;;
52396;SDS011;38322;53.108;6.308;2023-05-07T16:12:56;10.43;;;9.52;;
52396;SDS011;38322;53.108;6.308;2023-05-07T16:15:22;10.05;;;9.13;;
52396;SDS011;38322;53.108;6.308;2023-05-07T16:17:48;10.68;;;9.68;;
52396;SDS011;38322;53.108;6.308;2023-05-07T16:20:15;10.98;;;10.07;;
52396;SDS011;38322;53.108;6.308;2023-05-07T16:22:44;9.40;;;8.63;;
52396;SDS011;38322;53.108;6.308;2023-05-07T16:25:10;9.90;;;8.77;;
52396;SDS011;38322;53.108;6.308;2023-05-07T16:27:38;9.55;;;8.65;;
52396;SDS011;38322;53.108;6.308;2023-05-07T16:30:04;9.13;;;8.25;;
52396;SDS011;38322;53.108;6.308;2023-05-07T16:32:31;8.20;;;7.50;;
52396;SDS011;38322;53.108;6.308;2023-05-07T16:34:57;9.55;;;8.52;;
52396;SDS011;38322;53.108;6.308;2023-05-07T16:37:22;10.02;;;8.60;;
52396;SDS011;38322;53.108;6.308;2023-05-07T16:39:48;10.02;;;9.13;;
52396;SDS011;38322;53.108;6.308;2023-05-07T16:42:14;10.48;;;9.48;;
52396;SDS011;38322;53.108;6.308;2023-05-07T16:44:40;10.38;;;8.82;;
52396;SDS011;38322;53.108;6.308;2023-05-07T16:47:06;9.30;;;8.40;;
52396;SDS011;38322;53.108;6.308;2023-05-07T16:49:31;10.00;;;9.10;;
52396;SDS011;38322;53.108;6.308;2023-05-07T16:51:57;11.73;;;10.35;;
52396;SDS011;38322;53.108;6.308;2023-05-07T16:54:23;11.20;;;10.20;;
52396;SDS011;38322;53.108;6.308;2023-05-07T16:56:49;12.13;;;10.98;;
52396;SDS011;38322;53.108;6.308;2023-05-07T16:59:14;11.32;;;10.30;;
52396;SDS011;38322;53.108;6.308;2023-05-07T17:01:41;9.90;;;9.10;;
52396;SDS011;38322;53.108;6.308;2023-05-07T17:04:07;10.25;;;9.25;;
52396;SDS011;38322;53.108;6.308;2023-05-07T17:06:33;10.90;;;10.00;;
52396;SDS011;38322;53.108;6.308;2023-05-07T17:08:58;10.68;;;9.77;;
52396;SDS011;38322;53.108;6.308;2023-05-07T17:11:24;10.70;;;9.65;;
52396;SDS011;38322;53.108;6.308;2023-05-07T17:13:55;11.20;;;10.23;;
52396;SDS011;38322;53.108;6.308;2023-05-07T17:16:21;11.95;;;11.05;;
52396;SDS011;38322;53.108;6.308;2023-05-07T17:18:47;11.57;;;10.43;;
52396;SDS011;38322;53.108;6.308;2023-05-07T17:21:13;11.98;;;10.98;;
52396;SDS011;38322;53.108;6.308;2023-05-07T17:23:38;11.15;;;10.13;;
52396;SDS011;38322;53.108;6.308;2023-05-07T17:26:10;12.07;;;10.95;;
52396;SDS011;38322;53.108;6.308;2023-05-07T17:28:37;12.80;;;11.48;;
52396;SDS011;38322;53.108;6.308;2023-05-07T17:31:03;13.63;;;12.30;;
52396;SDS011;38322;53.108;6.308;2023-05-07T17:33:29;12.40;;;11.18;;
52396;SDS011;38322;53.108;6.308;2023-05-07T17:35:55;12.98;;;11.77;;
52396;SDS011;38322;53.108;6.308;2023-05-07T17:38:21;12.27;;;11.18;;
52396;SDS011;38322;53.108;6.308;2023-05-07T17:40:47;12.38;;;11.20;;
52396;SDS011;38322;53.108;6.308;2023-05-07T17:43:13;12.00;;;10.82;;
52396;SDS011;38322;53.108;6.308;2023-05-07T17:45:39;13.68;;;12.43;;
52396;SDS011;38322;53.108;6.308;2023-05-07T17:48:05;13.88;;;12.50;;
52396;SDS011;38322;53.108;6.308;2023-05-07T17:50:31;14.18;;;12.88;;
52396;SDS011;38322;53.108;6.308;2023-05-07T17:52:57;13.55;;;12.27;;
52396;SDS011;38322;53.108;6.308;2023-05-07T17:55:23;14.43;;;12.93;;
52396;SDS011;38322;53.108;6.308;2023-05-07T17:57:49;13.00;;;11.85;;
52396;SDS011;38322;53.108;6.308;2023-05-07T18:00:15;14.70;;;13.20;;
52396;SDS011;38322;53.108;6.308;2023-05-07T18:02:41;14.07;;;12.60;;
52396;SDS011;38322;53.108;6.308;2023-05-07T18:05:07;15.68;;;12.35;;
52396;SDS011;38322;53.108;6.308;2023-05-07T18:07:33;13.93;;;12.63;;
52396;SDS011;38322;53.108;6.308;2023-05-07T18:10:00;15.88;;;14.27;;
52396;SDS011;38322;53.108;6.308;2023-05-07T18:12:26;17.35;;;15.50;;
52396;SDS011;38322;53.108;6.308;2023-05-07T18:14:52;16.15;;;14.65;;
52396;SDS011;38322;53.108;6.308;2023-05-07T18:17:17;16.77;;;15.27;;
52396;SDS011;38322;53.108;6.308;2023-05-07T18:19:47;16.80;;;15.18;;
52396;SDS011;38322;53.108;6.308;2023-05-07T18:22:14;17.90;;;16.20;;
52396;SDS011;38322;53.108;6.308;2023-05-07T18:24:40;18.33;;;16.55;;
52396;SDS011;38322;53.108;6.308;2023-05-07T18:27:06;17.52;;;15.93;;
52396;SDS011;38322;53.108;6.308;2023-05-07T18:29:31;16.63;;;14.90;;
52396;SDS011;38322;53.108;6.308;2023-05-07T18:31:57;16.77;;;15.07;;
52396;SDS011;38322;53.108;6.308;2023-05-07T18:34:23;17.15;;;15.43;;
52396;SDS011;38322;53.108;6.308;2023-05-07T18:36:49;17.88;;;16.00;;
52396;SDS011;38322;53.108;6.308;2023-05-07T18:39:14;16.30;;;14.80;;
52396;SDS011;38322;53.108;6.308;2023-05-07T18:41:40;17.27;;;14.88;;
52396;SDS011;38322;53.108;6.308;2023-05-07T18:44:06;18.55;;;16.85;;
52396;SDS011;38322;53.108;6.308;2023-05-07T18:46:32;17.15;;;15.48;;
52396;SDS011;38322;53.108;6.308;2023-05-07T18:48:58;17.98;;;16.17;;
52396;SDS011;38322;53.108;6.308;2023-05-07T18:51:24;17.13;;;15.52;;
52396;SDS011;38322;53.108;6.308;2023-05-07T18:53:51;18.05;;;16.33;;
52396;SDS011;38322;53.108;6.308;2023-05-07T18:56:17;17.15;;;15.30;;
52396;SDS011;38322;53.108;6.308;2023-05-07T18:58:43;17.50;;;15.65;;
52396;SDS011;38322;53.108;6.308;2023-05-07T19:01:09;18.50;;;16.55;;
52396;SDS011;38322;53.108;6.308;2023-05-07T19:03:35;17.10;;;15.35;;
52396;SDS011;38322;53.108;6.308;2023-05-07T19:06:01;17.48;;;15.77;;
52396;SDS011;38322;53.108;6.308;2023-05-07T19:08:27;16.30;;;14.80;;
52396;SDS011;38322;53.108;6.308;2023-05-07T19:10:54;18.65;;;16.70;;
52396;SDS011;38322;53.108;6.308;2023-05-07T19:13:20;17.35;;;15.70;;
52396;SDS011;38322;53.108;6.308;2023-05-07T19:15:49;18.00;;;16.20;;
52396;SDS011;38322;53.108;6.308;2023-05-07T19:18:15;17.88;;;16.17;;
52396;SDS011;38322;53.108;6.308;2023-05-07T19:20:41;18.67;;;16.88;;
52396;SDS011;38322;53.108;6.308;2023-05-07T19:23:07;18.63;;;16.80;;
52396;SDS011;38322;53.108;6.308;2023-05-07T19:25:34;20.40;;;18.33;;
52396;SDS011;38322;53.108;6.308;2023-05-07T19:28:00;17.35;;;15.02;;